Aeroporto :
LOGIN :

Iscrizione | Disclaimer

   EN    FR    IT 

 










Sommario :    VFR   VFR Marginale   IFR   IFR Intensivo   IFR Molto Intensivo
Visibilità : 
Base nubi : 
>= 8 km
>= 3000ft
5 / 8 km
1000 / 3000 ft
1500m / 5 km
500 / 1000 ft
800 / 1500m
200 / 500 ft
< 800m
< 200 ft
Simboli :   Temporali  Nebbia  Neve Forte  Precipitazioni Forti  Vento > 20 kt
SIGMETs :   Varie  Temporali  Ghiacco  Turbolenza  Onda orograficha  Ceneri Vulcaniche






- Altitudine del aeroporto : 160 ft
- Codice IATA : FMO


EDDG - Münster Osnabrück Int.

ULTIMO METAR :
  • 300320Z 04002KT CAVOK 08/06 Q1025 NOSIG

METARs OBSOLETI :
  • 300250Z 03002KT CAVOK 09/06 Q1025 NOSIG
  • 300220Z 05003KT 020V080 CAVOK 10/06 Q1025 NOSIG
  • 300150Z VRB02KT CAVOK 11/06 Q1025 NOSIG
  • 300120Z VRB02KT CAVOK 10/07 Q1025 NOSIG
  • 300050Z 04003KT CAVOK 10/06 Q1025 NOSIG

TAF TAF EDDG
Valido dal 30 a 00 ore il 31 a 00 ore UTC


292300Z 3000/3024 VRB02KT CAVOK
BECMG 3007/3010 06009KT
BECMG 3018/3021 04004KT



MetMap, La meteo Aeronautica in un colpo d'occhio ! - Copyright ORBIFLY Dicembre 2007 - Disclaimer

ORBIFLY MET'MAP TEAM :

Programmazione e sviluppo : Alexandra Zaïnal
Concezione : Baudouin d'Aumeries
Aiuto per la programmazione : Marc-Olivier Méhu
Supporto tecnico e logistico : Manuel Goepfert
Aiuto per la traduzione : Arnaldo La Scala

Contatto : metmap@orbifly.com




FONTI E CREDITI :

   NOAA